createdAt,value
2022-10-17T00:08:45.548Z,95.5
2022-10-17T00:28:45.508Z,95.8
2022-10-17T00:48:45.492Z,96.0
2022-10-17T01:08:45.455Z,97.8
2022-10-17T01:28:45.443Z,97.9
2022-10-17T01:48:45.409Z,95.6
2022-10-17T02:08:45.396Z,97.4
2022-10-17T02:28:45.415Z,97.8
2022-10-17T02:48:45.349Z,96.4
2022-10-17T03:08:45.318Z,96.5
2022-10-17T03:28:45.304Z,96.7
2022-10-17T03:48:45.274Z,98.0
2022-10-17T04:08:45.245Z,96.4
2022-10-17T04:28:45.241Z,97.6
2022-10-17T04:48:45.235Z,97.5
2022-10-17T05:08:45.201Z,96.2
2022-10-17T05:28:45.171Z,96.8
2022-10-17T05:48:45.177Z,95.1
2022-10-17T06:08:45.155Z,98.0
2022-10-17T06:28:45.223Z,98.9
2022-10-17T06:48:45.080Z,99.6
2022-10-17T07:08:45.079Z,100.0
2022-10-17T07:28:45.050Z,100.0
2022-10-17T07:48:45.015Z,100.0
2022-10-17T08:08:45.018Z,100.0
2022-10-17T08:28:45.011Z,100.0
2022-10-17T08:48:44.941Z,100.0
2022-10-17T09:08:44.934Z,100.0
2022-10-17T09:28:44.951Z,99.6
2022-10-17T09:48:44.877Z,93.8
2022-10-17T10:08:44.965Z,91.9
2022-10-17T10:28:44.925Z,93.1
2022-10-17T10:48:44.932Z,88.4
2022-10-17T11:08:44.921Z,86.6
2022-10-17T11:28:44.853Z,84.1
2022-10-17T11:48:44.859Z,84.4
2022-10-17T12:08:44.819Z,83.6
2022-10-17T12:28:44.794Z,83.3
2022-10-17T12:48:44.613Z,85.7
2022-10-17T13:08:44.693Z,86.6
2022-10-17T13:28:44.707Z,86.1
2022-10-17T13:48:44.645Z,87.0
2022-10-17T14:08:44.651Z,85.6
2022-10-17T14:28:44.587Z,88.6
2022-10-17T14:48:44.453Z,85.4
2022-10-17T15:08:44.418Z,87.9
2022-10-17T15:28:44.392Z,86.8
2022-10-17T15:48:44.359Z,88.8
2022-10-17T16:08:44.322Z,88.9
2022-10-17T16:28:44.297Z,88.5
2022-10-17T16:48:44.270Z,89.3
2022-10-17T17:08:44.249Z,88.7
2022-10-17T17:28:44.206Z,91.3
2022-10-17T17:48:44.188Z,91.3
2022-10-17T18:08:44.171Z,92.4
2022-10-17T18:28:44.148Z,91.9
2022-10-17T18:48:44.114Z,91.9
2022-10-17T19:08:44.080Z,91.7
2022-10-17T19:28:44.059Z,92.8
2022-10-17T19:48:44.041Z,93.2
2022-10-17T20:08:44.010Z,93.5
2022-10-17T20:28:43.991Z,93.3
2022-10-17T20:48:43.965Z,94.9
2022-10-17T21:08:43.952Z,94.7
2022-10-17T21:28:43.919Z,93.7
2022-10-17T21:48:43.883Z,95.9
2022-10-17T22:08:43.858Z,94.0
2022-10-17T22:28:43.832Z,96.2
2022-10-17T22:48:43.802Z,95.1
2022-10-17T23:08:43.808Z,95.4
2022-10-17T23:28:43.763Z,95.2
2022-10-17T23:48:43.737Z,95.5
